Time;durP1;ratioP1;P1;durP2;ratioP2;P2;SDS_P1;SDS_P2;PMS_P1;PMS_P2;Temp;Humidity;BMP_temperature;BMP_pressure;BME280_temperature;BME280_humidity;BME280_pressure;Samples;Min_cycle;Max_cycle;Signal;HPM_P1;HPM_P2
2022/09/20 00:01:29;;;;;;;0.30;0.30;;;13.00;99.90;;;13.75;79.11;101153.34;4991255;28;20642;-66
2022/09/20 00:03:59;;;;;;;0.30;0.30;;;13.00;99.90;;;13.88;78.17;101148.78;4990461;28;20684;-65
2022/09/20 00:06:30;;;;;;;0.60;0.60;;;13.00;99.90;;;13.80;77.36;101156.41;4991099;28;20641;-66
2022/09/20 00:08:58;;;;;;;0.30;0.30;;;13.00;99.90;;;13.82;77.22;101157.13;4990795;28;20701;-66
2022/09/20 00:11:29;;;;;;;0.30;0.30;;;13.00;99.90;;;13.80;77.65;101156.41;4991803;28;20643;-65
2022/09/20 00:13:58;;;;;;;0.30;0.20;;;13.00;99.90;;;13.69;78.25;101158.22;4991305;28;20606;-66
2022/09/20 00:16:32;;;;;;;0.30;0.30;;;13.00;99.90;;;13.66;78.72;101163.69;4990124;28;21479;-66
2022/09/20 00:19:04;;;;;;;0.30;0.20;;;12.90;99.90;;;13.55;79.48;101155.78;4990700;28;20672;-66
2022/09/20 00:21:33;;;;;;;0.30;0.30;;;12.80;99.90;;;13.56;78.67;101158.31;4991774;28;20725;-66
2022/09/20 00:24:01;;;;;;;0.30;0.30;;;12.80;99.90;;;13.67;78.69;101160.94;4987683;28;20693;-67
2022/09/20 00:26:28;;;;;;;0.30;0.30;;;12.90;99.90;;;13.62;79.05;101163.09;4988755;28;20638;-65
2022/09/20 00:28:57;;;;;;;0.30;0.30;;;12.90;99.90;;;13.53;79.61;101157.69;4984404;28;20731;-68
2022/09/20 00:31:24;;;;;;;0.30;0.27;;;12.80;99.90;;;13.49;79.92;101161.50;4988517;28;20631;-65
2022/09/20 00:36:44;;;;;;;0.30;0.20;;;12.70;99.90;;;13.53;80.43;101165.56;4990945;28;20724;-65
2022/09/20 00:39:16;;;;;;;0.30;0.27;;;12.80;99.90;;;13.62;80.07;101163.09;4992218;28;20741;-65
2022/09/20 00:41:43;;;;;;;0.30;0.20;;;12.80;99.90;;;13.56;79.81;101168.81;4991107;28;20639;-65
2022/09/20 00:44:59;;;;;;;0.30;0.20;;;12.80;99.90;;;13.59;79.75;101165.94;4991441;28;20680;-66
2022/09/20 00:47:41;;;;;;;0.30;0.20;;;12.70;99.90;;;13.67;79.66;101167.97;4990511;28;20686;-66
2022/09/20 00:50:32;;;;;;;0.30;0.30;;;12.80;99.90;;;13.63;79.59;101166.56;4990491;28;20685;-66
2022/09/20 00:53:26;;;;;;;0.30;0.30;;;12.80;99.90;;;13.69;79.78;101166.09;4994986;28;20618;-66
2022/09/20 00:56:01;;;;;;;0.40;0.40;;;12.80;99.90;;;13.70;79.88;101170.34;4970549;28;20624;-66
2022/09/20 00:58:33;;;;;;;0.30;0.20;;;12.80;99.90;;;13.74;80.01;101162.13;4972346;28;20643;-66
2022/09/20 01:01:00;;;;;;;0.30;0.30;;;12.90;99.90;;;13.78;78.93;101162.72;4990523;28;20639;-67
2022/09/20 01:03:30;;;;;;;0.30;0.30;;;12.90;99.90;;;13.70;79.17;101162.50;4988664;28;20665;-66
2022/09/20 01:06:02;;;;;;;0.30;0.30;;;12.90;99.90;;;13.63;79.04;101159.50;5005442;28;20618;-66
2022/09/20 01:08:30;;;;;;;0.30;0.30;;;12.80;99.90;;;13.63;78.96;101167.38;4983345;28;20667;-66
2022/09/20 01:10:57;;;;;;;0.30;0.20;;;12.80;99.90;;;13.61;78.86;101158.78;4990526;28;21198;-67
2022/09/20 01:13:24;;;;;;;0.30;0.20;;;12.80;99.90;;;13.58;79.33;101163.44;4990558;28;21178;-66
2022/09/20 01:15:52;;;;;;;0.30;0.30;;;12.70;99.90;;;13.68;78.88;101165.25;4984109;28;20643;-66
2022/09/20 01:18:21;;;;;;;0.30;0.30;;;12.80;99.90;;;13.68;78.86;101170.47;4988399;28;20642;-65
2022/09/20 01:20:49;;;;;;;0.30;0.20;;;12.80;99.90;;;13.65;79.55;101175.94;4990502;28;20635;-66
2022/09/20 01:23:50;;;;;;;0.30;0.20;;;12.80;99.90;;;13.63;80.10;101169.97;4996245;28;21358;-66
2022/09/20 01:26:39;;;;;;;0.30;0.20;;;12.80;99.90;;;13.58;80.07;101172.13;5009831;28;20707;-66
2022/09/20 01:29:33;;;;;;;0.30;0.20;;;12.80;99.90;;;13.52;80.60;101172.56;4994900;28;20674;-66
2022/09/20 01:32:06;;;;;;;0.30;0.20;;;12.70;99.90;;;13.50;80.10;101173.66;4984413;28;21245;-66
2022/09/20 01:34:36;;;;;;;0.30;0.23;;;12.70;99.90;;;13.44;80.69;101174.13;4990097;28;20639;-66
2022/09/20 01:37:21;;;;;;;0.30;0.20;;;12.70;99.90;;;13.44;80.98;101171.53;4989557;28;20611;-67
2022/09/20 01:40:03;;;;;;;0.30;0.20;;;12.70;99.90;;;13.42;80.90;101176.00;4987138;28;20695;-68
2022/09/20 01:42:37;;;;;;;0.30;0.20;;;12.60;99.90;;;13.35;81.20;101165.19;4989268;28;20665;-65
2022/09/20 01:45:26;;;;;;;0.30;0.30;;;12.70;99.90;;;13.28;81.18;101160.50;4989546;28;20630;-66
2022/09/20 01:48:37;;;;;;;0.70;0.70;;;12.60;99.90;;;12.99;82.32;101152.16;4989675;28;20646;-67
2022/09/20 01:51:28;;;;;;;0.30;0.20;;;12.50;99.90;;;13.20;81.37;101155.84;4980108;28;21034;-66
2022/09/20 01:55:06;;;;;;;0.30;0.20;;;12.50;99.90;;;13.28;79.97;101155.25;4994216;28;20611;-67
2022/09/20 01:58:16;;;;;;;0.30;0.20;;;12.50;99.90;;;13.20;80.46;101161.88;4933480;29;20696;-66
2022/09/20 02:01:15;;;;;;;0.30;0.20;;;12.50;99.90;;;13.08;81.51;101157.56;4994442;28;21043;-66
2022/09/20 02:04:16;;;;;;;0.30;0.20;;;12.50;99.90;;;13.19;80.78;101167.25;4981629;28;21249;-66
2022/09/20 02:07:05;;;;;;;0.30;0.20;;;12.40;99.90;;;13.19;80.56;101165.47;4994023;28;20656;-66
2022/09/20 02:10:02;;;;;;;0.30;0.30;;;12.40;99.90;;;13.13;80.72;101159.84;4993051;28;20662;-66
2022/09/20 02:13:06;;;;;;;0.30;0.23;;;12.40;99.90;;;13.17;80.78;101162.13;4988605;28;20639;-67
2022/09/20 02:16:04;;;;;;;0.30;0.20;;;12.40;99.90;;;13.21;80.39;101165.34;4974601;28;20667;-66
2022/09/20 02:19:04;;;;;;;0.30;0.20;;;12.40;99.90;;;13.15;80.21;101164.03;4993681;28;20650;-66
2022/09/20 02:21:58;;;;;;;0.30;0.20;;;12.40;99.90;;;13.18;80.18;101162.97;4992680;28;20626;-67
2022/09/20 02:24:43;;;;;;;0.30;0.20;;;12.40;99.90;;;13.30;79.47;101167.28;4993288;28;20754;-68
2022/09/20 02:27:23;;;;;;;0.30;0.20;;;12.40;99.90;;;13.30;78.69;101167.28;4992631;28;20670;-65
2022/09/20 02:30:43;;;;;;;0.30;0.20;;;12.50;99.90;;;13.29;79.02;101164.81;4993638;28;21273;-66
2022/09/20 02:33:35;;;;;;;0.30;0.20;;;12.50;99.90;;;13.32;78.40;101168.00;4992867;28;20614;-67
2022/09/20 02:36:28;;;;;;;0.30;0.20;;;12.40;99.90;;;13.27;78.79;101169.31;4991393;28;20721;-67
2022/09/20 02:39:19;;;;;;;0.30;0.27;;;12.40;99.90;;;13.21;79.21;101168.81;4992657;28;20646;-66
2022/09/20 02:42:16;;;;;;;0.30;0.20;;;12.40;99.90;;;13.17;79.43;101167.38;4989321;28;20670;-66
2022/09/20 02:45:04;;;;;;;0.30;0.20;;;12.40;99.90;;;13.15;79.30;101164.03;4991226;28;20622;-66
2022/09/20 02:47:39;;;;;;;0.30;0.20;;;12.40;99.90;;;13.17;79.21;101171.78;4990634;28;20631;-66
2022/09/20 02:50:28;;;;;;;0.30;0.27;;;12.30;99.90;;;13.13;79.35;101170.34;4997380;28;20638;-67
2022/09/20 02:53:44;;;;;;;0.30;0.20;;;12.30;99.90;;;13.04;79.86;101171.84;4976254;28;21182;-66
2022/09/20 02:56:26;;;;;;;0.30;0.20;;;12.30;99.90;;;12.95;79.85;101172.47;4993932;28;20607;-66
2022/09/20 02:59:28;;;;;;;0.30;0.20;;;12.20;99.90;;;12.90;79.89;101173.78;4991590;28;20639;-66
2022/09/20 03:02:29;;;;;;;0.30;0.20;;;12.10;99.90;;;12.92;79.91;101177.13;4991923;28;20618;-66
2022/09/20 03:05:23;;;;;;;0.30;0.20;;;12.10;99.90;;;12.83;80.54;101188.25;4990808;28;20637;-66
2022/09/20 03:08:20;;;;;;;0.30;0.20;;;12.10;99.90;;;12.87;80.00;101181.84;4985126;28;20697;-67
2022/09/20 03:11:27;;;;;;;0.30;0.20;;;12.00;99.90;;;12.74;80.24;101181.06;4991451;28;21268;-65
2022/09/20 03:14:23;;;;;;;0.30;0.20;;;12.00;99.90;;;12.72;80.63;101186.41;4992795;28;20618;-66
2022/09/20 03:17:17;;;;;;;0.30;0.20;;;11.90;99.90;;;12.68;80.95;101177.09;5008431;28;20704;-66
2022/09/20 03:20:18;;;;;;;0.30;0.20;;;11.90;99.90;;;12.68;80.24;101184.13;4989657;28;21320;-66
2022/09/20 03:23:03;;;;;;;0.30;0.30;;;11.90;99.90;;;12.70;81.21;101188.31;4984709;28;20668;-66
2022/09/20 03:25:54;;;;;;;0.30;0.20;;;11.90;99.90;;;12.48;81.86;101179.50;4992232;28;21060;-66
2022/09/20 03:28:37;;;;;;;0.30;0.20;;;11.80;99.90;;;12.64;81.23;101187.91;4991548;28;20642;-66
2022/09/20 03:31:37;;;;;;;0.30;0.30;;;11.90;99.90;;;12.54;81.43;101192.13;4990921;28;20630;-66
2022/09/20 03:34:37;;;;;;;0.30;0.20;;;11.80;99.90;;;12.29;82.73;101198.25;4992429;28;20621;-66
2022/09/20 03:38:04;;;;;;;0.30;0.30;;;11.70;99.90;;;12.30;82.65;101194.69;4985596;28;20623;-66
2022/09/20 03:41:08;;;;;;;0.30;0.20;;;11.60;99.90;;;12.31;82.91;101199.81;4989110;28;20662;-67
2022/09/20 03:43:56;;;;;;;0.30;0.20;;;11.60;99.90;;;12.33;82.90;101194.47;4991514;28;20987;-67
2022/09/20 03:46:29;;;;;;;0.30;0.20;;;11.60;99.90;;;12.25;83.78;101192.41;4992208;28;20643;-66
2022/09/20 03:49:31;;;;;;;0.30;0.20;;;11.60;99.90;;;12.14;84.26;101188.84;4984064;28;20754;-67
2022/09/20 03:52:34;;;;;;;0.30;0.30;;;11.50;99.90;;;12.05;84.27;101189.50;4991108;28;21206;-65
2022/09/20 03:55:14;;;;;;;0.30;0.20;;;11.40;99.90;;;12.04;83.82;101196.50;4990620;28;21463;-67
2022/09/20 03:57:59;;;;;;;0.30;0.20;;;11.40;99.90;;;11.96;84.92;101201.44;4991452;28;20631;-66
2022/09/20 04:00:59;;;;;;;0.30;0.30;;;11.30;99.90;;;11.89;84.99;101204.56;4992679;28;20712;-66
2022/09/20 04:03:48;;;;;;;0.30;0.20;;;11.30;99.90;;;11.87;84.96;101207.28;4981977;28;20640;-66
2022/09/20 04:06:43;;;;;;;0.30;0.20;;;11.20;99.90;;;11.80;84.05;101211.25;4973122;28;20592;-65
2022/09/20 04:10:02;;;;;;;0.30;0.30;;;11.20;99.90;;;11.49;86.23;101194.16;4974021;28;20706;-65
2022/09/20 04:12:44;;;;;;;0.30;0.30;;;11.00;99.90;;;11.66;84.85;101200.88;4974615;28;20685;-66
2022/09/20 04:16:08;;;;;;;0.30;0.20;;;11.00;99.90;;;11.71;85.25;101198.81;4991621;28;20661;-65
2022/09/20 04:18:55;;;;;;;0.30;0.20;;;11.00;99.90;;;11.65;85.01;101193.94;4991568;28;20658;-64
2022/09/20 04:21:35;;;;;;;0.30;0.20;;;11.00;99.90;;;11.62;85.66;101191.56;4990222;28;20712;-66
2022/09/20 04:24:23;;;;;;;0.30;0.20;;;10.90;99.90;;;11.62;85.58;101199.41;4980528;28;20634;-65
2022/09/20 04:27:18;;;;;;;0.30;0.20;;;10.90;99.90;;;11.66;85.59;101206.09;4991695;28;20619;-66
2022/09/20 04:30:04;;;;;;;0.30;0.20;;;10.90;99.90;;;11.65;85.85;101202.63;4990732;28;20724;-65
2022/09/20 04:33:10;;;;;;;0.30;0.30;;;10.90;99.90;;;11.64;85.55;101206.22;4974396;28;20676;-65
2022/09/20 04:39:02;;;;;;;0.30;0.20;;;10.90;99.90;;;11.52;85.59;101208.81;4991179;28;20646;-65
2022/09/20 04:42:07;;;;;;;0.30;0.20;;;10.90;99.90;;;11.29;86.88;101209.47;4987451;28;20663;-66
2022/09/20 04:44:54;;;;;;;0.30;0.20;;;10.80;99.90;;;11.40;85.86;101212.22;4990654;28;20618;-66
2022/09/20 04:47:46;;;;;;;0.30;0.20;;;;;;;11.41;85.94;101214.75;4990182;28;20669;-66
2022/09/20 04:51:04;;;;;;;0.30;0.20;;;10.80;99.90;;;11.36;86.22;101211.59;4973650;28;20628;-67
2022/09/20 04:54:21;;;;;;;0.30;0.20;;;10.80;99.90;;;11.41;85.91;101211.28;4964161;28;20624;-68
2022/09/20 04:57:23;;;;;;;0.30;0.30;;;10.70;99.90;;;11.46;84.95;101217.88;4990966;28;20670;-65
2022/09/20 04:59:53;;;;;;;0.77;0.77;;;10.70;99.90;;;11.41;86.01;101217.38;4990444;28;20670;-66
2022/09/20 05:02:51;;;;;;;0.30;0.20;;;10.80;99.90;;;11.38;86.79;101220.16;4990022;28;20642;-66
2022/09/20 05:05:45;;;;;;;0.30;0.20;;;10.80;99.90;;;11.44;85.62;101224.13;4989829;28;20642;-66
2022/09/20 05:08:55;;;;;;;0.30;0.20;;;10.70;99.90;;;11.41;85.57;101229.59;5000716;28;20655;-65
2022/09/20 05:11:51;;;;;;;0.30;0.20;;;10.80;99.90;;;11.46;86.04;101237.94;4980603;28;20618;-66
2022/09/20 05:14:46;;;;;;;0.30;0.20;;;10.80;99.90;;;11.48;85.70;101239.50;5004670;28;20631;-66
2022/09/20 05:17:40;;;;;;;0.30;0.20;;;10.80;99.90;;;11.50;85.04;101240.25;4991052;28;20618;-66
2022/09/20 05:20:23;;;;;;;0.30;0.20;;;10.80;99.90;;;11.48;85.16;101243.91;4986543;28;20673;-66
2022/09/20 05:23:22;;;;;;;0.30;0.20;;;10.80;99.90;;;11.60;85.10;101245.72;4990491;28;20611;-66
2022/09/20 05:26:02;;;;;;;0.30;0.20;;;10.90;99.90;;;11.76;84.49;101251.63;4989013;28;20627;-67
2022/09/20 05:28:55;;;;;;;0.30;0.30;;;11.00;99.90;;;11.90;82.68;101246.31;5011796;23;21484;-63
2022/09/20 05:31:29;;;;;;;0.30;0.20;;;11.10;99.90;;;11.99;82.38;101253.53;4988082;28;20643;-63
2022/09/20 05:34:30;;;;;;;0.30;0.20;;;11.20;99.90;;;12.12;82.54;101250.91;4971078;28;20834;-66
2022/09/20 05:37:29;;;;;;;0.30;0.20;;;11.30;99.90;;;12.24;81.60;101252.69;4981230;28;20712;-63
2022/09/20 05:41:04;;;;;;;0.30;0.20;;;11.40;99.90;;;12.37;81.05;101251.72;4978220;28;20678;-66
2022/09/20 05:43:51;;;;;;;0.30;0.30;;;11.50;99.90;;;12.56;79.83;101251.28;4977617;28;20974;-64
2022/09/20 05:46:43;;;;;;;0.30;0.20;;;11.70;99.90;;;13.07;78.06;101255.47;4981138;28;21252;-65
2022/09/20 05:49:49;;;;;;;0.30;0.20;;;12.00;99.90;;;13.87;75.32;101257.31;4988771;28;20709;-61
2022/09/20 05:52:52;;;;;;;0.30;0.30;;;12.50;99.90;;;14.29;72.08;101265.53;4988579;28;20630;-64
2022/09/20 05:55:45;;;;;;;0.30;0.20;;;13.00;99.90;;;14.87;70.33;101259.13;4988618;28;21194;-64
2022/09/20 05:58:45;;;;;;;0.30;0.20;;;13.40;99.90;;;15.94;67.02;101263.38;4979476;28;20674;-66
2022/09/20 06:01:33;;;;;;;0.30;0.30;;;14.10;99.90;;;16.90;63.16;101269.94;4990817;28;20717;-65
2022/09/20 06:04:13;;;;;;;0.30;0.30;;;15.00;99.90;;;16.75;62.51;101268.66;4983997;28;20724;-66
2022/09/20 06:07:05;;;;;;;0.30;0.30;;;15.20;99.90;;;16.31;64.04;101272.47;4987620;28;20639;-66
2022/09/20 06:10:04;;;;;;;0.30;0.30;;;15.10;99.90;;;16.05;65.03;101272.06;4989074;28;20635;-64
2022/09/20 06:13:10;;;;;;;0.43;0.40;;;14.90;99.90;;;15.82;66.36;101272.31;4988993;28;20618;-65
2022/09/20 06:16:34;;;;;;;0.30;0.20;;;14.70;99.90;;;15.63;66.35;101272.19;4989926;28;20634;-64
2022/09/20 06:19:15;;;;;;;0.30;0.30;;;14.50;99.90;;;15.99;66.65;101263.84;4967372;28;20663;-64
2022/09/20 06:21:50;;;;;;;0.30;0.30;;;14.60;99.90;;;17.10;63.30;101268.97;4967985;28;20797;-66
2022/09/20 06:24:32;;;;;;;0.30;0.30;;;15.20;99.90;;;19.17;56.70;101270.56;4980102;28;20626;-65
2022/09/20 06:27:05;;;;;;;0.30;0.30;;;16.30;99.90;;;20.93;51.54;101280.75;4988709;28;20995;-65
2022/09/20 06:29:37;;;;;;;0.30;0.30;;;17.70;99.90;;;21.89;48.64;101280.03;4989850;28;20651;-64
2022/09/20 06:32:04;;;;;;;0.30;0.30;;;18.50;99.90;;;22.52;46.96;101284.56;4971128;28;20620;-64
2022/09/20 06:34:31;;;;;;;0.30;0.30;;;19.30;99.90;;;22.24;47.87;101279.66;4969271;28;20627;-64
2022/09/20 06:43:18;;;;;;;0.30;0.30;;;20.70;99.90;;;25.92;39.49;101281.72;4993202;28;20676;-63
2022/09/20 06:45:46;;;;;;;0.30;0.30;;;21.80;99.30;;;26.72;37.85;101290.09;4988774;28;20635;-65
2022/09/20 06:48:14;;;;;;;0.30;0.30;;;22.50;97.10;;;26.40;38.12;101286.22;4982681;28;20630;-64
2022/09/20 06:50:44;;;;;;;0.30;0.30;;;22.70;95.50;;;25.77;39.03;101286.38;4995081;28;21435;-64
2022/09/20 06:53:18;;;;;;;0.30;0.30;;;22.60;95.10;;;24.76;41.64;101285.69;4993345;28;20614;-65
2022/09/20 06:55:45;;;;;;;0.93;0.90;;;22.10;95.40;;;23.25;43.62;101285.06;4988424;28;20686;-64
2022/09/20 06:58:12;;;;;;;0.30;0.30;;;21.40;95.40;;;21.28;48.11;101280.50;4985140;28;20685;-65
2022/09/20 07:00:39;;;;;;;0.30;0.30;;;20.10;97.10;;;20.29;50.33;101286.59;4989460;28;21445;-65
2022/09/20 07:03:07;;;;;;;0.47;0.47;;;19.20;98.80;;;19.50;53.42;101282.31;4993235;28;20610;-64
2022/09/20 07:05:35;;;;;;;0.30;0.30;;;18.50;99.90;;;19.07;54.22;101283.03;4993111;28;20634;-64
2022/09/20 07:08:02;;;;;;;0.30;0.30;;;17.90;99.90;;;19.56;53.83;101281.72;4993717;28;20622;-65
2022/09/20 07:10:29;;;;;;;0.30;0.30;;;17.90;99.90;;;20.20;51.73;101278.72;4993065;28;20713;-63
2022/09/20 07:12:59;;;;;;;0.30;0.30;;;18.30;99.90;;;21.46;49.35;101286.53;4992393;28;20638;-64
2022/09/20 07:15:27;;;;;;;0.30;0.30;;;19.00;99.90;;;22.14;46.69;101283.50;4991905;28;20614;-65
2022/09/20 07:17:54;;;;;;;0.30;0.30;;;19.70;99.90;;;23.30;44.48;101291.50;4992255;28;20635;-63
2022/09/20 07:20:22;;;;;;;0.30;0.30;;;20.50;99.50;;;25.14;40.07;101301.34;4983475;28;20675;-63
2022/09/20 07:22:49;;;;;;;0.30;0.30;;;21.70;96.60;;;26.35;38.10;101304.69;4985253;28;20669;-64
2022/09/20 07:25:17;;;;;;;0.30;0.30;;;22.90;95.00;;;27.46;36.23;101301.69;4992043;28;20716;-64
2022/09/20 07:27:45;;;;;;;0.30;0.30;;;24.00;92.60;;;28.27;35.04;101308.50;4984681;28;21206;-64
2022/09/20 07:30:13;;;;;;;0.40;0.40;;;24.90;90.40;;;27.69;35.48;101299.44;4990724;28;21128;-65
2022/09/20 07:32:40;;;;;;;0.30;0.30;;;25.10;87.10;;;26.47;37.02;101313.03;4991029;28;20623;-64
2022/09/20 07:35:11;;;;;;;0.30;0.30;;;24.50;85.90;;;24.91;39.89;101303.34;4978069;28;20647;-63
2022/09/20 07:37:41;;;;;;;0.30;0.30;;;23.40;87.50;;;24.11;41.43;101298.88;4982830;28;21107;-65
2022/09/20 07:40:10;;;;;;;0.40;0.40;;;22.60;89.60;;;24.09;41.36;101298.25;4992046;28;20663;-64
2022/09/20 07:42:37;;;;;;;0.30;0.30;;;22.30;90.50;;;23.63;42.38;101314.28;4991087;28;20617;-64
2022/09/20 07:45:04;;;;;;;0.30;0.30;;;21.90;91.10;;;22.95;43.82;101306.22;4990941;28;20631;-63
2022/09/20 07:47:34;;;;;;;0.30;0.30;;;21.40;91.70;;;22.35;45.14;101310.38;4990088;28;20742;-64
2022/09/20 07:50:02;;;;;;;0.30;0.30;;;20.90;92.70;;;22.26;45.90;101314.88;4980408;28;20662;-65
2022/09/20 07:52:29;;;;;;;0.30;0.30;;;20.80;93.60;;;22.60;45.17;101312.00;4989291;28;20619;-64
2022/09/20 07:54:56;;;;;;;0.30;0.30;;;20.90;93.60;;;22.56;45.09;101315.13;4978506;28;21429;-65
2022/09/20 07:57:23;;;;;;;0.30;0.30;;;20.90;93.40;;;22.28;45.77;101322.69;4991727;28;21229;-65
2022/09/20 07:59:50;;;;;;;0.30;0.30;;;20.80;93.70;;;21.95;46.18;101321.06;4991462;28;20694;-64
2022/09/20 08:02:17;;;;;;;0.30;0.30;;;20.50;94.10;;;21.94;46.29;101319.41;4993308;28;20708;-65
2022/09/20 08:04:43;;;;;;;0.30;0.30;;;20.40;94.50;;;22.18;46.02;101325.53;4991383;28;20622;-64
2022/09/20 08:07:11;;;;;;;0.30;0.30;;;20.40;94.70;;;22.50;45.69;101321.97;4991537;28;21085;-65
2022/09/20 08:09:38;;;;;;;0.30;0.30;;;20.50;94.90;;;23.39;44.10;101326.94;4987798;28;20662;-62
2022/09/20 08:12:07;;;;;;;0.30;0.30;;;20.90;95.00;;;23.42;43.43;101329.25;4990042;28;20975;-64
2022/09/20 08:14:54;;;;;;;0.30;0.30;;;21.40;93.70;;;22.23;45.12;101323.19;4991748;28;20662;-64
2022/09/20 08:17:21;;;;;;;0.30;0.30;;;20.70;93.40;;;21.60;46.86;101323.03;4992073;28;21223;-64
2022/09/20 08:19:52;;;;;;;0.30;0.30;;;20.20;94.40;;;20.82;48.52;101328.78;4991624;28;20669;-64
2022/09/20 08:22:19;;;;;;;0.30;0.30;;;19.50;95.40;;;20.43;49.78;101330.22;4992556;28;20669;-63
2022/09/20 08:24:45;;;;;;;0.30;0.30;;;19.10;96.60;;;20.26;50.81;101328.47;4989903;28;21422;-64
2022/09/20 08:27:12;;;;;;;0.30;0.30;;;18.90;97.50;;;20.25;50.85;101334.75;4990794;28;20638;-64
2022/09/20 08:29:39;;;;;;;0.30;0.30;;;18.80;98.00;;;20.13;51.02;101326.19;4983143;28;20666;-64
2022/09/20 08:32:06;;;;;;;0.30;0.30;;;18.60;98.50;;;20.28;50.82;101334.44;4976872;28;20674;-63
2022/09/20 08:34:33;;;;;;;0.30;0.30;;;18.60;98.90;;;20.50;50.74;101333.91;4990637;28;20634;-64
2022/09/20 08:37:00;;;;;;;0.30;0.30;;;18.60;99.40;;;20.69;50.57;101337.19;4991092;28;20743;-64
2022/09/20 08:39:27;;;;;;;1.23;1.13;;;18.80;99.70;;;20.85;49.97;101339.03;4991559;28;21046;-63
2022/09/20 08:42:37;;;;;;;0.30;0.30;;;18.90;99.50;;;20.96;49.99;101330.81;4988783;28;20740;-66
2022/09/20 08:45:21;;;;;;;0.30;0.30;;;19.00;99.40;;;20.75;50.53;101333.03;4976373;28;20674;-63
2022/09/20 08:48:04;;;;;;;0.70;0.70;;;19.20;99.20;;;20.96;49.80;101333.47;4983409;28;20991;-63
2022/09/20 08:50:33;;;;;;;1.77;1.77;;;19.20;98.90;;;21.36;49.17;101338.09;4989335;28;21253;-66
2022/09/20 08:53:03;;;;;;;1.47;1.37;;;19.50;98.90;;;21.63;48.09;101332.50;4981167;28;20646;-64
2022/09/20 08:55:32;;;;;;;0.30;0.30;;;19.60;98.40;;;21.90;47.38;101337.50;4982073;28;20642;-63
2022/09/20 08:58:10;;;;;;;0.30;0.30;;;19.80;97.90;;;22.92;45.38;101338.47;4986914;28;20650;-64
2022/09/20 09:00:45;;;;;;;0.30;0.30;;;20.20;97.60;;;23.91;42.70;101335.88;4986524;28;20702;-63
2022/09/20 09:03:16;;;;;;;0.30;0.30;;;20.90;96.00;;;24.82;40.98;101339.16;4988793;28;20621;-64
2022/09/20 09:05:46;;;;;;;0.30;0.30;;;21.60;94.90;;;25.50;39.71;101341.41;4989212;28;20630;-64
2022/09/20 09:08:21;;;;;;;0.30;0.30;;;22.10;93.80;;;25.44;39.02;101339.50;4989235;28;20689;-65
2022/09/20 09:10:53;;;;;;;0.30;0.30;;;22.50;92.40;;;24.79;40.49;101341.38;4998597;28;20634;-64
2022/09/20 09:14:47;;;;;;;0.30;0.30;;;22.40;92.30;;;23.98;42.26;101342.13;4989702;28;20657;-61
2022/09/20 09:16:56;;;;;;;0.30;0.30;;;22.00;92.70;;;23.59;43.29;101341.47;4988866;28;20642;-63
2022/09/20 09:19:50;;;;;;;0.30;0.30;;;21.70;93.20;;;22.56;45.54;101339.91;4986419;28;21233;-63
2022/09/20 09:22:49;;;;;;;0.30;0.30;;;21.00;94.20;;;22.17;45.61;101331.00;4980079;28;20675;-64
2022/09/20 09:25:16;;;;;;;0.30;0.30;;;20.60;94.20;;;21.54;46.97;101330.81;4969870;28;21050;-63
2022/09/20 09:27:51;;;;;;;0.30;0.30;;;20.10;94.90;;;21.30;47.53;101325.47;4981136;28;20718;-64
2022/09/20 09:30:30;;;;;;;0.30;0.30;;;19.80;95.30;;;20.77;48.15;101331.06;4977881;28;20725;-64
2022/09/20 09:33:27;;;;;;;0.30;0.30;;;19.40;95.70;;;20.27;49.47;101335.44;4971191;28;21284;-63
2022/09/20 09:36:02;;;;;;;0.30;0.30;;;18.90;96.50;;;19.82;50.48;101335.56;4983885;28;20646;-63
2022/09/20 09:38:33;;;;;;;0.30;0.30;;;18.60;97.20;;;19.60;50.50;101325.41;4990402;28;20641;-65
2022/09/20 09:41:28;;;;;;;0.30;0.30;;;18.30;97.50;;;19.44;51.35;101323.47;4988244;28;20702;-66
2022/09/20 09:44:09;;;;;;;0.30;0.30;;;18.10;98.10;;;19.40;52.36;101318.63;4990496;28;20634;-66
2022/09/20 09:46:39;;;;;;;0.30;0.30;;;18.10;99.20;;;19.73;51.37;101321.41;4988408;28;20702;-64
2022/09/20 09:49:20;;;;;;;0.30;0.30;;;18.20;99.00;;;20.75;48.99;101320.63;4981813;28;21080;-65
2022/09/20 09:51:56;;;;;;;0.30;0.30;;;18.70;98.40;;;23.48;44.22;101325.88;4990460;28;20689;-65
2022/09/20 09:54:25;;;;;;;0.30;0.30;;;20.00;97.90;;;30.85;31.60;101332.44;4983392;28;20674;-65
2022/09/20 09:57:00;;;;;;;0.30;0.30;;;23.80;93.30;;;33.65;27.17;101324.97;4970723;28;20607;-64
2022/09/20 09:59:57;;;;;;;0.30;0.30;;;26.70;84.90;;;32.46;28.08;101315.81;4983288;28;21253;-64
2022/09/20 10:02:50;;;;;;;0.30;0.30;;;27.60;77.40;;;29.35;30.57;101307.69;4982519;28;20726;-65
2022/09/20 10:05:24;;;;;;;0.30;0.30;;;26.70;73.30;;;27.75;33.58;101308.53;4974384;28;20642;-64
2022/09/20 10:07:53;;;;;;;0.30;0.30;;;25.40;75.20;;;26.81;34.96;101303.13;4970687;28;20659;-64
2022/09/20 10:11:17;;;;;;;0.30;0.30;;;24.60;77.10;;;26.54;35.63;101300.47;4975065;28;20681;-64
2022/09/20 10:14:21;;;;;;;0.30;0.30;;;24.10;78.40;;;28.47;32.88;101303.94;4988293;28;20635;-64
2022/09/20 10:17:09;;;;;;;0.30;0.30;;;24.80;78.40;;;27.76;33.59;101294.91;4995261;28;21197;-65
2022/09/20 10:20:18;;;;;;;0.30;0.30;;;24.70;77.00;;;26.00;36.03;101300.34;4998414;28;20642;-65
2022/09/20 10:22:55;;;;;;;0.30;0.30;;;24.00;77.80;;;24.37;39.76;101293.94;4977363;28;20671;-65
2022/09/20 10:26:15;;;;;;;0.30;0.30;;;22.90;80.30;;;22.39;42.95;101298.41;4994525;28;20722;-65
2022/09/20 10:29:02;;;;;;;0.30;0.30;;;21.30;83.70;;;21.64;45.31;101299.63;4987428;28;20651;-65
2022/09/20 10:31:46;;;;;;;0.30;0.30;;;20.50;87.80;;;20.98;45.63;101301.47;4981681;28;20662;-65
2022/09/20 10:34:53;;;;;;;0.30;0.30;;;19.80;89.30;;;21.20;42.93;101299.09;4992909;28;21050;-65
2022/09/20 10:38:09;;;;;;;0.30;0.30;;;19.80;87.10;;;20.52;43.93;101297.47;4982885;28;21182;-65
2022/09/20 10:43:52;;;;;;;0.30;0.30;;;19.00;85.20;;;20.11;42.84;101294.56;4991321;28;20669;-64
2022/09/20 10:46:37;;;;;;;1.70;1.60;;;18.90;84.60;;;20.17;43.53;101298.38;4998759;28;20717;-64
2022/09/20 10:49:27;;;;;;;1.43;1.33;;;18.90;85.60;;;20.42;43.76;101291.47;4998162;28;20649;-63
2022/09/20 10:52:07;;;;;;;0.30;0.30;;;18.90;86.80;;;20.89;42.63;101300.63;4987808;28;20602;-63
2022/09/20 10:54:52;;;;;;;0.30;0.30;;;19.20;86.70;;;21.18;42.41;101317.00;4983878;28;20672;-64
2022/09/20 10:57:40;;;;;;;0.30;0.30;;;19.40;86.70;;;20.95;42.09;101315.91;4981485;28;20623;-64
2022/09/20 11:00:24;;;;;;;0.30;0.30;;;19.40;85.40;;;20.70;41.25;101311.47;4983609;28;20647;-64
2022/09/20 11:03:28;;;;;;;0.30;0.30;;;19.20;83.30;;;19.41;42.65;101310.53;4987247;28;20708;-64
2022/09/20 11:06:10;;;;;;;0.30;0.30;;;18.60;83.10;;;18.49;44.87;101306.28;4991583;28;20634;-64
2022/09/20 11:08:38;;;;;;;0.30;0.30;;;17.70;85.50;;;18.13;46.74;101320.25;4980331;28;20647;-64
2022/09/20 11:11:23;;;;;;;0.30;0.30;;;17.20;88.30;;;18.02;46.21;101318.59;4979540;28;20684;-64
2022/09/20 11:14:30;;;;;;;0.30;0.30;;;17.10;88.50;;;17.75;47.93;101326.41;4974718;28;20627;-64
2022/09/20 11:17:05;;;;;;;0.30;0.30;;;16.80;90.30;;;17.66;47.52;101333.34;4974848;28;20686;-64
2022/09/20 11:19:59;;;;;;;0.30;0.30;;;16.70;90.20;;;16.96;50.67;101327.38;4977068;28;20653;-64
2022/09/20 11:22:48;;;;;;;0.30;0.30;;;16.30;92.00;;;17.23;51.81;101332.84;4994602;28;20668;-65
2022/09/20 11:25:19;;;;;;;0.30;0.30;;;16.20;94.00;;;17.10;52.37;101334.09;5003328;28;20638;-63
2022/09/20 11:28:08;;;;;;;0.30;0.30;;;16.20;94.80;;;16.94;52.69;101329.31;4978664;28;20715;-64
2022/09/20 11:31:07;;;;;;;0.30;0.30;;;16.00;95.10;;;17.00;53.58;101334.06;5027733;23;20703;-66
2022/09/20 11:34:28;;;;;;;0.30;0.30;;;16.10;96.00;;;17.28;52.49;101324.53;5020223;28;20721;-66
2022/09/20 11:37:00;;;;;;;0.30;0.30;;;16.10;96.30;;;17.26;52.89;101334.38;4991465;28;20666;-66
2022/09/20 11:39:53;;;;;;;0.30;0.30;;;16.20;96.60;;;17.27;53.60;101317.63;4992676;28;20646;-66